Flight Track Log - Related Links

Times and Time Zones

All times are in EDT time to prevent confusion due to time zone crossing. See the GGN7280 flight status page for this flight to view local times or setup timezone preferences in your user account.

Time Position Orientation Groundspeed Altitude Reporting Facility
EDT Latitude Longitude Course Direction KTS MPH feet Rate Location/Type
Mon 09:29:36 AM 43.6333 -79.6167 133° Southeast 150 173 1,900  Level Toronto Center
Mon 09:30:36 AM 43.6000 -79.5667 133° Southeast 210 242 3,500 1,650 Climbing Toronto Center
Mon 09:31:36 AM 43.5833 -79.5000 109° East 210 242 5,200 1,700 Climbing Toronto Center
Mon 09:32:36 AM 43.5667 -79.4000 103° East 220 253 6,900 1,450 Climbing Toronto Center
Mon 09:33:36 AM 43.5500 -79.3167 105° East 230 265 8,100 1,250 Climbing Toronto Center
Mon 09:34:36 AM 43.5500 -79.2167 90° East 250 288 9,400 1,100 Climbing Toronto Center
Mon 09:35:36 AM 43.5333 -79.1333 105° East 260 299 10,300 750 Climbing Toronto Center
Mon 09:36:36 AM 43.5167 -79.0167 101° East 270 311 10,900 850 Climbing Toronto Center
Mon 09:37:36 AM 43.5167 -78.9167 90° East 270 311 12,000 1,000 Climbing Toronto Center
Mon 09:38:36 AM 43.5000 -78.8000 101° East 280 322 12,900 500 Climbing Toronto Center
Mon 09:39:36 AM 43.4833 -78.6833 101° East 290 334 13,000 600 Climbing Toronto Center
Mon 09:40:36 AM 43.4667 -78.6000 105° East 290 334 14,100 1,150 Climbing Toronto Center
Mon 09:41:36 AM 43.4333 -78.4833 111° Southeast 270 311 15,300 1,050 Climbing Toronto Center
Mon 09:42:36 AM 43.4333 -78.4000 90° East 270 311 16,200 1,000 Climbing Toronto Center
Mon 09:43:36 AM 43.4167 -78.3000 103° East 270 311 17,300 1,150 Climbing Toronto Center
Mon 09:44:36 AM 43.4000 -78.1833 101° East 260 299 18,500 1,050 Climbing Toronto Center
Mon 09:45:36 AM 43.4000 -78.1000 90° East 270 311 19,400 800 Climbing Toronto Center
Mon 09:46:36 AM 43.3833 -77.9833 101° East 270 311 20,100 750 Climbing Toronto Center
Mon 09:47:36 AM 43.3667 -77.8833 103° East 270 311 20,900 435 Climbing Toronto Center
Mon 09:48:40 AM 43.3669 -77.8075 90° East 278 320 21,000 48 Climbing Cleveland Center
Mon 09:49:40 AM 43.3539 -77.6994 99° East 278 320 21,000  Level Cleveland Center
Mon 09:50:40 AM 43.3386 -77.5919 101° East 278 320 21,000  Level Cleveland Center
Mon 09:51:40 AM 43.3211 -77.4842 103° East 278 320 21,000  Level Cleveland Center
Mon 09:52:40 AM 43.3056 -77.3736 101° East 278 320 21,000  Level Cleveland Center
Mon 09:53:40 AM 43.2900 -77.2633 101° East 289 333 21,000  Level Cleveland Center
Mon 09:54:40 AM 43.2739 -77.1414 100° East 289 333 21,000  Level Cleveland Center
Mon 09:55:40 AM 43.2583 -77.0339 101° East 295 339 21,000  Level Cleveland Center
Mon 09:57:29 AM 43.2319 -76.8578 102° East 292 336 21,000 -42 Level Boston Center
Mon 09:58:03 AM 43.2167 -76.7333 100° East 280 322 20,900 -64 Descending Toronto Center
Mon 09:59:03 AM 43.1833 -76.6167 111° Southeast 300 345 20,900  Level Toronto Center
Mon 10:00:03 AM 43.1667 -76.5167 103° East 300 345 20,900 -600 Level Toronto Center
Mon 10:01:03 AM 43.1500 -76.4167 103° East 300 345 19,700 -950 Descending Toronto Center
Mon 10:02:03 AM 43.1500 -76.3000 90° East 300 345 19,000 -350 Descending Toronto Center
Mon 10:03:03 AM 43.1500 -76.1833 90° East 290 334 19,000 -50 Level Toronto Center
Mon 10:04:03 AM 43.1333 -76.0667 101° East 270 311 18,900  Descending Toronto Center
Mon 10:05:03 AM 43.1333 -75.9833 90° East 260 299 19,000  Climbing Toronto Center
Mon 10:06:03 AM 43.1167 -75.8833 103° East 260 299 18,900 -455 Descending Toronto Center
Mon 10:07:28 AM 43.1289 -75.7747 81° East 258 297 17,900 -703 Descending Boston Center
Mon 10:08:28 AM 43.1192 -75.6831 98° East 258 297 17,200 -694 Descending Boston Center
Mon 10:09:29 AM 43.1133 -75.5889 95° East 258 297 16,500 -689 Descending Boston Center
Mon 10:10:30 AM 43.1078 -75.4947 95° East 253 291 15,800 -744 Descending Boston Center
Mon 10:11:30 AM 43.0997 -75.4033 97° East 253 291 15,000 -1,017 Descending Boston Center
Mon 10:12:28 AM 43.0939 -75.3064 95° East 253 291 13,800 -1,119 Descending Boston Center
Mon 10:13:28 AM 43.0861 -75.1978 96° East 264 304 12,800 -900 Descending Boston Center
Mon 10:14:28 AM 43.0803 -75.0925 94° East 277 319 12,000 -694 Descending Boston Center
Mon 10:15:29 AM 43.0700 -74.9925 98° East 283 326 11,400 -492 Descending Boston Center
Mon 10:16:30 AM 43.0642 -74.8842 94° East 288 331 11,000 -253 Descending Boston Center
Mon 10:17:04 AM 43.0572 -74.8100 97° East 282 325 11,000  Level Boston Center
Mon 10:18:04 AM 43.0511 -74.7075 95° East 274 315 11,000  Level Boston Center
Mon 10:19:04 AM 43.0383 -74.6019 99° East 277 319 11,000  Level Boston Center
Mon 10:19:59 AM 43.0278 -74.5050 98° East 279 321 11,000 -141 Level Boston Center
Mon 10:20:29 AM 43.0203 -74.4564 102° East 275 316 10,800 -476 Descending Boston Center
Mon 10:21:02 AM 43.0131 -74.3994 100° East 283 326 10,500 -702 Descending Boston Center
Mon 10:22:03 AM 42.9958 -74.2939 103° East 293 337 9,700 -1,091 Descending Boston Center
Mon 10:23:03 AM 42.9619 -74.1964 115° Southeast 289 333 8,300 -1,438 Descending Boston Center
Mon 10:24:04 AM 42.9239 -74.0931 117° Southeast 280 322 6,800 -1,388 Descending Boston Center
Mon 10:25:04 AM 42.8919 -74.0017 115° Southeast 265 305 5,500 -1,375 Descending Boston Center
Mon 10:26:28 AM 42.8519 -73.8817 114° Southeast 274 315 3,500 -1,736 Descending Boston Center
Mon 10:27:05 AM 42.8336 -73.8358 119° Southeast 201 231 2,000 -1,546 Descending Boston Center
Mon 10:28:05 AM 42.7922 -73.8067 153° Southeast 138 159 1,000 6,986 Descending Boston Center
Mon 10:29:31 AM 42.7425 -73.6161 110° East 262 302 19,000 7,552 Climbing Boston Center
Mon 10:30:28 AM 42.7058 -73.5306 120° Southeast 262 302 19,000  Level Boston Center
Mon 10:32:00 AM 42.7214 -73.6818 278° West  Level FlightAware Approximate

Login

Don't have an account? Register now (free) for customized features, flight alerts, and more!